Time;durP1;ratioP1;P1;durP2;ratioP2;P2;SDS_P1;SDS_P2;PMS_P1;PMS_P2;Temp;Humidity;BMP_temperature;BMP_pressure;BME280_temperature;BME280_humidity;BME280_pressure;Samples;Min_cycle;Max_cycle;Signal;HPM_P1;HPM_P2
2022/12/31 00:01:50;;;;;;;1.02;1.02;;;12.10;99.90;;;;;;4958168;28;20041;-73
2022/12/31 00:04:17;;;;;;;2.15;1.20;;;12.10;99.90;;;;;;4979408;28;20073;-73
2022/12/31 00:06:44;;;;;;;1.13;1.13;;;12.20;99.90;;;;;;4979520;28;20042;-73
2022/12/31 00:09:11;;;;;;;1.38;1.27;;;12.20;99.90;;;;;;4977221;28;20611;-73
2022/12/31 00:11:38;;;;;;;1.08;0.90;;;12.30;99.90;;;;;;4973557;28;20045;-73
2022/12/31 00:14:05;;;;;;;1.23;0.80;;;12.30;99.90;;;;;;4974943;28;20142;-73
2022/12/31 00:16:37;;;;;;;0.60;0.60;;;12.30;99.90;;;;;;4978223;28;20046;-73
2022/12/31 00:19:06;;;;;;;0.77;0.50;;;12.20;99.90;;;;;;4977190;28;20633;-74
2022/12/31 00:21:33;;;;;;;1.05;0.43;;;12.10;99.90;;;;;;4965554;28;20096;-74
2022/12/31 00:24:01;;;;;;;2.03;0.45;;;12.10;99.90;;;;;;4975267;28;20050;-74
2022/12/31 00:26:30;;;;;;;0.40;0.40;;;12.00;99.90;;;;;;4978195;28;20045;-73
2022/12/31 00:28:58;;;;;;;1.55;0.35;;;12.00;99.90;;;;;;4978778;28;20056;-73
2022/12/31 00:31:27;;;;;;;0.95;0.40;;;12.00;99.90;;;;;;4980617;28;20453;-73
2022/12/31 00:33:55;;;;;;;2.28;0.40;;;12.00;99.90;;;;;;4974465;28;20054;-74
2022/12/31 00:36:27;;;;;;;0.50;0.50;;;12.10;99.90;;;;;;4978602;28;20053;-74
2022/12/31 00:38:55;;;;;;;2.17;0.40;;;12.20;99.90;;;;;;4978645;28;20046;-74
2022/12/31 00:41:24;;;;;;;0.43;0.40;;;12.20;99.90;;;;;;4976978;28;20052;-73
2022/12/31 00:43:51;;;;;;;0.75;0.60;;;12.20;99.90;;;;;;4977378;28;20068;-73
2022/12/31 00:46:18;;;;;;;0.57;0.57;;;12.20;99.90;;;;;;4979292;28;20046;-72
2022/12/31 00:48:45;;;;;;;2.78;0.60;;;12.30;99.90;;;;;;4975263;28;20039;-73
2022/12/31 00:51:15;;;;;;;0.80;0.80;;;12.30;99.90;;;;;;4977315;28;20066;-73
2022/12/31 00:53:42;;;;;;;0.70;0.70;;;12.30;99.90;;;;;;4979300;28;20050;-73
2022/12/31 00:56:12;;;;;;;2.47;0.80;;;12.40;99.90;;;;;;4963204;28;20447;-73
2022/12/31 00:58:39;;;;;;;1.58;0.82;;;12.30;99.90;;;;;;4978018;28;20046;-72
2022/12/31 01:01:19;;;;;;;0.90;0.90;;;12.40;99.90;;;;;;4971076;28;20042;-73
2022/12/31 01:03:47;;;;;;;1.10;1.10;;;12.50;99.90;;;;;;4973143;28;20058;-72
2022/12/31 01:06:14;;;;;;;1.00;1.00;;;12.50;99.90;;;;;;4960552;28;20463;-72
2022/12/31 01:08:41;;;;;;;1.80;1.70;;;12.50;99.90;;;;;;4979020;28;20042;-72
2022/12/31 01:11:23;;;;;;;1.60;1.60;;;12.60;99.90;;;;;;4992154;28;20047;-72
2022/12/31 01:14:13;;;;;;;1.83;1.80;;;12.60;99.90;;;;;;4976433;28;20779;-72
2022/12/31 01:16:48;;;;;;;1.75;1.75;;;12.60;99.90;;;;;;5002723;28;20042;-73
2022/12/31 01:19:18;;;;;;;1.95;1.80;;;12.60;99.90;;;;;;4977142;28;20053;-73
2022/12/31 01:21:46;;;;;;;2.13;2.03;;;12.70;99.90;;;;;;4974719;28;20133;-73
2022/12/31 01:24:13;;;;;;;1.90;1.90;;;12.70;99.90;;;;;;4976069;28;20069;-73
2022/12/31 01:26:40;;;;;;;2.13;2.03;;;12.80;99.90;;;;;;4977538;28;20061;-73
2022/12/31 01:29:09;;;;;;;1.85;1.75;;;12.80;99.90;;;;;;4976852;28;20138;-74
2022/12/31 01:31:37;;;;;;;2.85;1.70;;;12.70;99.90;;;;;;4976235;28;20046;-73
2022/12/31 01:34:05;;;;;;;1.80;1.70;;;12.70;99.90;;;;;;4974987;28;20050;-74
2022/12/31 01:36:33;;;;;;;1.40;1.40;;;12.70;99.90;;;;;;4976369;28;21281;-74
2022/12/31 01:39:01;;;;;;;1.50;1.40;;;12.70;99.90;;;;;;4975566;28;20054;-74
2022/12/31 01:41:36;;;;;;;1.10;1.10;;;12.70;99.90;;;;;;4993101;28;20038;-74
2022/12/31 01:44:25;;;;;;;0.60;0.60;;;12.70;99.90;;;;;;4976328;28;20431;-74
2022/12/31 01:46:58;;;;;;;0.63;0.63;;;12.60;99.90;;;;;;4976931;28;20168;-73
2022/12/31 01:49:33;;;;;;;5.18;0.70;;;12.50;99.90;;;;;;4985210;28;20142;-73
2022/12/31 01:52:09;;;;;;;2.95;1.20;;;12.40;99.90;;;;;;4990364;28;20052;-73
2022/12/31 01:54:45;;;;;;;0.30;0.30;;;12.30;99.90;;;;;;4977321;28;20039;-75
2022/12/31 01:57:13;;;;;;;0.30;0.25;;;12.20;99.90;;;;;;4976238;28;20046;-76
2022/12/31 01:59:40;;;;;;;0.82;0.60;;;12.10;99.90;;;;;;4977478;28;20047;-75
2022/12/31 02:02:07;;;;;;;0.52;0.50;;;12.10;99.90;;;;;;4977249;28;20058;-75
2022/12/31 02:04:34;;;;;;;0.60;0.50;;;12.10;99.90;;;;;;4978117;28;20563;-73
2022/12/31 02:07:06;;;;;;;0.82;0.43;;;12.00;99.90;;;;;;4974914;28;20424;-72
2022/12/31 02:09:37;;;;;;;3.63;0.60;;;12.10;99.90;;;;;;4976247;28;20092;-73
2022/12/31 02:12:04;;;;;;;1.95;0.50;;;12.10;99.90;;;;;;4972564;28;20054;-73
2022/12/31 02:14:34;;;;;;;0.77;0.43;;;12.10;99.90;;;;;;4976356;28;20046;-73
2022/12/31 02:17:26;;;;;;;1.60;0.30;;;12.10;99.90;;;;;;4987446;28;20936;-72
2022/12/31 02:20:27;;;;;;;1.00;0.40;;;12.10;99.90;;;;;;4977093;28;20042;-73
2022/12/31 02:23:47;;;;;;;0.70;0.50;;;12.10;99.90;;;;;;4971382;28;20625;-73
2022/12/31 02:26:29;;;;;;;0.80;0.40;;;12.10;99.90;;;;;;4956576;28;20073;-73
2022/12/31 02:29:35;;;;;;;0.40;0.40;;;12.20;99.90;;;;;;4974137;28;20512;-73
2022/12/31 02:32:12;;;;;;;1.48;0.32;;;12.20;99.90;;;;;;4970127;28;21446;-73
2022/12/31 02:34:51;;;;;;;0.30;0.20;;;12.20;99.90;;;;;;4975260;28;20046;-72
2022/12/31 02:37:21;;;;;;;0.30;0.30;;;12.30;99.90;;;;;;4973150;28;21287;-73
2022/12/31 02:39:48;;;;;;;0.60;0.20;;;12.40;99.90;;;;;;4973977;28;20142;-72
2022/12/31 02:42:15;;;;;;;0.30;0.30;;;12.50;99.90;;;;;;4974257;28;20512;-72
2022/12/31 02:44:42;;;;;;;0.60;0.45;;;12.60;99.90;;;;;;4977671;28;20050;-73
2022/12/31 02:47:27;;;;;;;0.90;0.75;;;12.60;99.90;;;;;;4973811;28;20042;-72
2022/12/31 02:50:10;;;;;;;2.15;0.60;;;12.60;99.90;;;;;;4972022;28;20050;-72
2022/12/31 02:53:01;;;;;;;0.50;0.50;;;12.50;99.90;;;;;;4974358;28;20038;-73
2022/12/31 02:55:57;;;;;;;0.60;0.50;;;12.40;99.90;;;;;;4987070;28;20513;-72
2022/12/31 03:04:31;;;;;;;0.45;0.45;;;12.20;99.90;;;;;;5016468;22;20041;-76
2022/12/31 03:07:08;;;;;;;1.55;0.50;;;12.10;99.90;;;;;;4985401;28;20046;-79
2022/12/31 03:09:35;;;;;;;0.77;0.68;;;12.20;99.90;;;;;;4993276;28;20062;-75
2022/12/31 03:14:52;;;;;;;0.80;0.70;;;12.20;99.90;;;;;;4996002;28;20048;-79
2022/12/31 03:17:18;;;;;;;0.63;0.55;;;12.20;99.90;;;;;;4991437;28;20077;-76
2022/12/31 03:22:35;;;;;;;0.75;0.30;;;12.30;99.90;;;;;;5003045;28;20351;-78
2022/12/31 03:27:59;;;;;;;1.67;0.70;;;13.10;99.90;;;;;;4996485;28;20060;-81
2022/12/31 03:30:27;;;;;;;1.00;1.00;;;13.50;99.90;;;;;;4978880;28;20092;-78
2022/12/31 03:32:55;;;;;;;1.10;1.10;;;13.70;99.90;;;;;;4990398;28;20041;-76
2022/12/31 03:35:22;;;;;;;1.65;1.65;;;13.80;99.90;;;;;;4995903;28;20321;-77
2022/12/31 03:37:50;;;;;;;2.10;2.10;;;14.00;99.90;;;;;;4999051;28;20578;-78
2022/12/31 03:40:20;;;;;;;2.30;2.30;;;14.10;99.90;;;;;;4991330;28;20051;-78
2022/12/31 03:42:47;;;;;;;2.40;2.30;;;14.20;99.90;;;;;;4978632;28;20054;-77
2022/12/31 03:45:14;;;;;;;2.45;2.35;;;14.10;99.90;;;;;;4998335;28;20528;-78
2022/12/31 03:47:41;;;;;;;3.10;3.00;;;14.10;99.90;;;;;;5005387;28;20409;-76
2022/12/31 03:50:10;;;;;;;3.15;3.05;;;14.20;99.90;;;;;;4996804;28;20041;-81
2022/12/31 03:52:37;;;;;;;3.40;3.30;;;14.30;99.90;;;;;;5000676;28;20065;-80
2022/12/31 03:55:04;;;;;;;3.70;3.60;;;14.30;99.90;;;;;;4991317;28;20553;-79
2022/12/31 03:57:32;;;;;;;3.88;3.78;;;14.30;99.90;;;;;;5001784;28;20045;-76
2022/12/31 03:59:59;;;;;;;4.22;4.13;;;14.30;99.90;;;;;;4998658;28;20060;-77
2022/12/31 04:02:25;;;;;;;4.50;4.40;;;14.40;99.90;;;;;;4992605;28;20041;-79
2022/12/31 04:04:55;;;;;;;4.78;4.68;;;14.40;99.90;;;;;;4991638;28;20104;-78
2022/12/31 04:07:22;;;;;;;5.57;5.35;;;14.40;99.90;;;;;;4997967;28;20038;-79
2022/12/31 04:09:49;;;;;;;5.47;5.28;;;14.50;99.90;;;;;;4998651;28;20045;-77
2022/12/31 04:12:16;;;;;;;5.35;5.15;;;14.50;99.90;;;;;;4996154;28;20493;-77
2022/12/31 04:14:43;;;;;;;5.10;4.90;;;14.50;99.90;;;;;;4998815;28;20053;-78
2022/12/31 04:17:09;;;;;;;4.97;4.88;;;14.50;99.90;;;;;;4987434;28;20053;-77
2022/12/31 04:19:37;;;;;;;4.60;4.50;;;14.50;99.90;;;;;;4985227;28;20045;-79
2022/12/31 04:22:04;;;;;;;4.70;4.50;;;14.50;99.90;;;;;;5004813;28;20213;-76
2022/12/31 04:24:30;;;;;;;4.05;3.95;;;14.50;99.90;;;;;;5002618;28;20049;-79
2022/12/31 04:26:58;;;;;;;3.90;3.80;;;14.40;99.90;;;;;;4981288;28;20046;-77
2022/12/31 04:29:33;;;;;;;3.80;3.60;;;14.40;99.90;;;;;;5009697;28;21062;-76
2022/12/31 04:32:00;;;;;;;3.78;3.47;;;14.30;99.90;;;;;;5000446;28;20095;-78
2022/12/31 04:34:27;;;;;;;3.40;3.30;;;14.30;99.90;;;;;;4998968;28;20037;-75
2022/12/31 04:36:54;;;;;;;3.33;3.22;;;14.30;99.90;;;;;;5006910;28;20577;-77
2022/12/31 04:39:21;;;;;;;4.30;4.10;;;14.30;99.90;;;;;;5007856;28;20045;-78
2022/12/31 04:41:48;;;;;;;4.53;4.43;;;14.40;99.90;;;;;;5004089;28;20049;-76
2022/12/31 04:44:16;;;;;;;4.35;4.25;;;14.50;99.90;;;;;;5011834;28;20042;-77
2022/12/31 04:46:43;;;;;;;4.40;4.20;;;14.40;99.90;;;;;;5009842;28;20051;-78
2022/12/31 04:49:11;;;;;;;4.65;4.38;;;14.50;99.90;;;;;;5040118;28;20067;-78
2022/12/31 04:51:38;;;;;;;3.80;3.70;;;14.50;99.90;;;;;;5008611;28;20041;-76
2022/12/31 04:54:05;;;;;;;4.32;4.22;;;14.50;99.90;;;;;;5011591;28;20930;-78
2022/12/31 04:56:35;;;;;;;4.40;4.30;;;14.40;99.90;;;;;;4995442;28;20267;-77
2022/12/31 04:59:03;;;;;;;4.30;4.20;;;14.40;99.90;;;;;;5023152;28;20053;-76
2022/12/31 05:01:30;;;;;;;4.80;4.70;;;14.40;99.90;;;;;;5007619;28;20041;-77
2022/12/31 05:03:57;;;;;;;4.18;4.07;;;14.40;99.90;;;;;;5006607;28;20049;-78
2022/12/31 05:06:24;;;;;;;4.13;4.03;;;14.40;99.90;;;;;;5004484;28;20370;-78
2022/12/31 05:08:51;;;;;;;4.47;4.38;;;14.30;99.90;;;;;;5006802;28;20046;-79
2022/12/31 05:11:19;;;;;;;4.88;4.63;;;14.40;99.90;;;;;;5010862;28;20268;-77
2022/12/31 05:13:45;;;;;;;4.30;4.20;;;14.50;99.90;;;;;;5008938;28;20041;-80
2022/12/31 05:16:12;;;;;;;4.40;4.30;;;14.40;99.90;;;;;;5010883;28;20072;-74
2022/12/31 05:18:39;;;;;;;4.60;4.43;;;14.40;99.90;;;;;;5004548;28;20884;-76
2022/12/31 05:21:07;;;;;;;4.40;4.30;;;14.40;99.90;;;;;;5003843;28;20289;-78
2022/12/31 05:23:34;;;;;;;4.40;4.30;;;14.40;99.90;;;;;;5005257;28;20097;-78
2022/12/31 05:26:01;;;;;;;4.40;4.30;;;14.30;99.90;;;;;;5000139;28;20050;-82
2022/12/31 05:28:27;;;;;;;4.60;4.50;;;14.30;99.90;;;;;;5000088;28;20171;-82
2022/12/31 05:30:55;;;;;;;3.95;3.85;;;14.40;99.90;;;;;;4997663;28;20064;-78
2022/12/31 05:33:22;;;;;;;3.33;3.22;;;14.30;99.90;;;;;;4980567;28;20132;-78
2022/12/31 05:35:49;;;;;;;3.00;2.90;;;14.30;99.90;;;;;;4999810;28;20034;-80
2022/12/31 05:38:16;;;;;;;2.70;2.60;;;14.20;99.90;;;;;;5004388;28;20080;-79
2022/12/31 05:40:43;;;;;;;3.30;3.10;;;14.20;99.90;;;;;;4994948;28;20037;-78
2022/12/31 05:43:10;;;;;;;2.72;1.80;;;14.20;99.90;;;;;;4984305;28;20049;-77
2022/12/31 05:45:37;;;;;;;2.47;2.35;;;14.20;99.90;;;;;;5000094;28;20515;-79
2022/12/31 05:48:05;;;;;;;2.20;2.20;;;14.20;99.90;;;;;;4999946;28;20179;-78
2022/12/31 05:50:32;;;;;;;2.60;2.50;;;14.30;99.90;;;;;;5004903;28;20041;-79
2022/12/31 05:53:03;;;;;;;2.70;2.60;;;14.20;99.90;;;;;;5000731;28;20371;-79
2022/12/31 05:55:29;;;;;;;2.63;2.53;;;14.30;99.90;;;;;;5002037;28;20057;-77
2022/12/31 05:57:57;;;;;;;2.55;2.45;;;14.30;99.90;;;;;;5006679;28;20046;-79
2022/12/31 06:00:23;;;;;;;2.80;2.70;;;14.30;99.90;;;;;;5006046;28;20042;-78
2022/12/31 06:02:50;;;;;;;2.80;2.70;;;14.30;99.90;;;;;;5000093;28;20053;-76
2022/12/31 06:05:17;;;;;;;3.20;3.10;;;14.40;99.90;;;;;;4964252;28;1088845;-79
2022/12/31 06:07:51;;;;;;;3.70;3.60;;;14.40;99.90;;;;;;5033759;28;20438;-80
2022/12/31 06:10:19;;;;;;;3.63;3.42;;;14.40;99.90;;;;;;5006900;28;20048;-78
2022/12/31 06:12:46;;;;;;;3.70;3.60;;;14.40;99.90;;;;;;4998259;28;20124;-80
2022/12/31 06:15:12;;;;;;;3.88;3.78;;;14.40;99.90;;;;;;5005718;28;20053;-76
2022/12/31 06:17:39;;;;;;;4.22;4.13;;;14.40;99.90;;;;;;5000930;28;20092;-76
2022/12/31 06:20:07;;;;;;;4.45;4.15;;;14.50;99.90;;;;;;5004961;28;20148;-78
2022/12/31 06:22:39;;;;;;;4.57;4.47;;;14.40;99.90;;;;;;5008449;28;20103;-80
2022/12/31 06:25:06;;;;;;;5.38;5.18;;;14.50;99.90;;;;;;5002150;28;20122;-77
2022/12/31 06:27:33;;;;;;;5.97;5.68;;;14.50;99.90;;;;;;5009158;28;20301;-75
2022/12/31 06:30:00;;;;;;;6.10;5.90;;;14.60;99.90;;;;;;4987638;28;20049;-77
2022/12/31 06:32:27;;;;;;;6.20;6.00;;;14.60;99.90;;;;;;5020293;28;20041;-82
2022/12/31 06:34:53;;;;;;;6.60;6.40;;;14.60;99.90;;;;;;5008964;28;20038;-82
2022/12/31 06:37:21;;;;;;;6.70;6.40;;;14.60;99.90;;;;;;5011029;28;20061;-75
2022/12/31 06:39:48;;;;;;;6.78;6.57;;;14.70;99.90;;;;;;5006649;28;20072;-79
2022/12/31 06:42:15;;;;;;;7.53;7.15;;;14.70;99.90;;;;;;5006833;28;20116;-79
2022/12/31 06:44:42;;;;;;;6.57;6.38;;;14.70;99.90;;;;;;5005517;28;20470;-79
2022/12/31 06:47:09;;;;;;;7.20;7.00;;;14.70;99.90;;;;;;5004236;28;20045;-78
2022/12/31 06:49:36;;;;;;;7.88;7.43;;;14.70;99.90;;;;;;5008777;28;20132;-78
2022/12/31 06:52:03;;;;;;;7.40;7.20;;;14.80;99.90;;;;;;5006017;28;20091;-82
2022/12/31 06:54:30;;;;;;;8.05;7.55;;;14.80;99.90;;;;;;5007952;28;20041;-77
2022/12/31 06:56:57;;;;;;;7.30;7.00;;;14.80;99.90;;;;;;5006326;28;20730;-78
2022/12/31 06:59:28;;;;;;;8.55;8.05;;;14.80;99.90;;;;;;5009872;28;20057;-77
2022/12/31 07:02:04;;;;;;;10.07;9.70;;;14.90;99.90;;;;;;4997639;28;20206;-79
2022/12/31 07:04:57;;;;;;;11.13;10.63;;;15.00;99.90;;;;;;5001044;28;20045;-77
2022/12/31 07:07:32;;;;;;;11.07;10.68;;;15.10;99.90;;;;;;5001949;28;20072;-77
2022/12/31 07:10:05;;;;;;;;;;;15.10;99.90;;;;;;5003766;28;20257;-80
2022/12/31 07:12:50;;;;;;;11.50;11.00;;;15.20;99.90;;;;;;5006584;28;19928;-83
2022/12/31 07:15:40;;;;;;;;;;;15.10;99.90;;;;;;5005764;28;20411;-79
2022/12/31 07:18:20;;;;;;;11.30;10.88;;;15.10;99.90;;;;;;5007365;28;20027;-79
2022/12/31 07:20:47;;;;;;;11.48;10.98;;;15.20;99.90;;;;;;5002625;28;20052;-81
2022/12/31 07:23:15;;;;;;;11.30;10.70;;;15.20;99.90;;;;;;4993485;28;20049;-79
2022/12/31 07:26:05;;;;;;;11.00;10.57;;;15.10;99.90;;;;;;5005749;28;20056;-76
2022/12/31 07:29:10;;;;;;;11.10;10.50;;;15.10;99.90;;;;;;4989020;28;20134;-79
2022/12/31 07:31:52;;;;;;;11.52;11.13;;;15.10;99.90;;;;;;4998388;28;20398;-82
2022/12/31 07:34:44;;;;;;;11.57;11.18;;;15.20;99.90;;;;;;5001632;28;20103;-81
2022/12/31 07:37:26;;;;;;;11.68;11.18;;;15.20;99.90;;;;;;5000545;28;20072;-79
2022/12/31 07:40:44;;;;;;;11.93;11.30;;;15.20;99.90;;;;;;5000697;28;20049;-79
2022/12/31 07:43:34;;;;;;;11.75;11.25;;;15.20;99.90;;;;;;5002947;28;20233;-80
2022/12/31 07:46:10;;;;;;;12.32;11.77;;;15.10;99.90;;;;;;5000619;28;20894;-79
2022/12/31 07:48:38;;;;;;;11.88;11.43;;;15.20;99.90;;;;;;5003858;28;20049;-77
2022/12/31 07:51:05;;;;;;;11.98;11.43;;;15.20;99.90;;;;;;4997833;28;21047;-80
2022/12/31 07:53:32;;;;;;;11.15;10.75;;;15.20;99.90;;;;;;5006527;28;20072;-79
2022/12/31 07:56:01;;;;;;;11.68;11.18;;;15.20;99.90;;;;;;5002526;28;20593;-77
2022/12/31 07:58:39;;;;;;;11.23;10.73;;;15.20;99.90;;;;;;5006933;28;20496;-80
2022/12/31 08:01:15;;;;;;;9.88;9.55;;;15.20;99.90;;;;;;5000289;28;20068;-79
2022/12/31 08:03:54;;;;;;;9.73;9.32;;;15.20;99.90;;;;;;4995514;28;20182;-82
2022/12/31 08:06:54;;;;;;;10.00;9.60;;;15.30;99.90;;;;;;5001296;28;20037;-80
2022/12/31 08:09:41;;;;;;;10.80;10.30;;;15.30;99.90;;;;;;4984279;28;20192;-82
2022/12/31 08:12:08;;;;;;;9.98;9.68;;;15.30;99.90;;;;;;4983788;28;20118;-79
2022/12/31 08:14:46;;;;;;;9.63;9.23;;;15.30;99.90;;;;;;5005815;28;20141;-78
2022/12/31 08:17:16;;;;;;;9.93;9.43;;;15.30;99.90;;;;;;5011424;28;20224;-79
2022/12/31 08:19:44;;;;;;;10.38;9.73;;;15.30;99.90;;;;;;4986962;28;20049;-81
2022/12/31 08:22:21;;;;;;;10.25;9.75;;;15.30;99.90;;;;;;5004211;28;20046;-78
2022/12/31 08:25:04;;;;;;;10.15;9.50;;;15.30;99.90;;;;;;5002104;28;20419;-79
2022/12/31 08:27:39;;;;;;;11.80;11.10;;;15.30;99.90;;;;;;5004953;28;20054;-80
2022/12/31 08:30:12;;;;;;;;;;;15.40;99.90;;;;;;5007668;28;20050;-78
2022/12/31 08:33:23;;;;;;;10.48;10.07;;;15.40;99.90;;;;;;5009120;28;20821;-79
2022/12/31 08:36:15;;;;;;;10.32;9.73;;;15.30;99.90;;;;;;5013131;28;20042;-83
2022/12/31 08:39:05;;;;;;;10.95;10.27;;;15.30;99.90;;;;;;4996739;28;20045;-84
2022/12/31 08:41:47;;;;;;;15.35;14.65;;;15.40;99.90;;;;;;5008602;28;20478;-79
2022/12/31 08:44:43;;;;;;;15.18;14.57;;;15.40;99.90;;;;;;5005867;28;20148;-79
2022/12/31 08:47:41;;;;;;;15.57;14.88;;;15.50;99.90;;;;;;5007780;28;20490;-79
2022/12/31 08:50:14;;;;;;;15.50;14.68;;;15.40;99.90;;;;;;5004297;28;20091;-77
2022/12/31 08:52:42;;;;;;;14.82;14.13;;;15.40;99.90;;;;;;5006370;28;20052;-82
2022/12/31 08:55:17;;;;;;;14.98;14.38;;;15.40;99.90;;;;;;5009483;28;20033;-79
2022/12/31 08:57:53;;;;;;;;;;;15.40;99.90;;;;;;5016121;28;20265;-81
2022/12/31 09:00:20;;;;;;;18.83;17.52;;;15.40;99.90;;;;;;5012911;28;20002;-78
2022/12/31 09:02:53;;;;;;;16.33;15.63;;;15.50;99.90;;;;;;4987994;28;20049;-79
2022/12/31 09:05:43;;;;;;;15.65;15.05;;;15.50;99.90;;;;;;5001298;23;20119;-70
2022/12/31 09:08:35;;;;;;;15.02;14.15;;;15.50;99.90;;;;;;4942511;28;20042;-71
2022/12/31 09:11:13;;;;;;;15.30;14.70;;;15.50;99.90;;;;;;4990043;28;20515;-71
2022/12/31 09:14:24;;;;;;;15.77;14.90;;;15.50;99.90;;;;;;4988132;28;20143;-71
2022/12/31 09:17:11;;;;;;;16.63;15.85;;;15.60;99.90;;;;;;4967554;28;20410;-71
2022/12/31 09:19:38;;;;;;;17.63;16.83;;;15.60;99.90;;;;;;4973083;28;20502;-70
2022/12/31 09:22:05;;;;;;;17.30;16.35;;;15.60;99.90;;;;;;4971172;28;20430;-71
2022/12/31 09:24:32;;;;;;;17.02;16.10;;;15.70;99.90;;;;;;4973211;28;20039;-68
2022/12/31 09:27:25;;;;;;;16.55;15.75;;;15.60;99.90;;;;;;4971710;28;20052;-69
2022/12/31 09:30:03;;;;;;;15.65;14.95;;;15.60;99.90;;;;;;4973121;28;20164;-71
2022/12/31 09:32:52;;;;;;;16.33;15.52;;;15.60;99.90;;;;;;4971301;28;20049;-69
2022/12/31 09:35:49;;;;;;;15.80;14.82;;;15.70;99.90;;;;;;4971868;28;20050;-70
2022/12/31 09:38:25;;;;;;;15.93;15.02;;;15.70;99.90;;;;;;4974251;28;20039;-69
2022/12/31 09:41:14;;;;;;;15.05;14.45;;;15.70;99.90;;;;;;4973764;28;20042;-68
2022/12/31 09:43:59;;;;;;;15.63;14.75;;;15.70;99.90;;;;;;4971762;28;20097;-68
2022/12/31 09:47:21;;;;;;;15.68;15.07;;;15.80;99.90;;;;;;4972078;28;20192;-69
2022/12/31 09:49:50;;;;;;;17.10;16.20;;;15.80;99.90;;;;;;4915482;29;20055;-69
2022/12/31 09:52:38;;;;;;;17.15;16.25;;;15.80;99.90;;;;;;4966329;28;20041;-70
2022/12/31 09:55:11;;;;;;;17.55;16.40;;;15.80;99.90;;;;;;4969459;28;20348;-71
2022/12/31 09:57:54;;;;;;;17.27;16.48;;;15.90;99.90;;;;;;4970855;28;20039;-70
2022/12/31 10:00:29;;;;;;;16.95;16.25;;;15.90;99.90;;;;;;4972580;28;20446;-69
2022/12/31 10:03:15;;;;;;;17.27;16.38;;;16.00;99.90;;;;;;4970599;28;20061;-68
2022/12/31 10:05:58;;;;;;;17.50;16.40;;;16.00;99.90;;;;;;4972957;28;20078;-68
2022/12/31 10:08:51;;;;;;;17.58;16.77;;;16.00;99.90;;;;;;4972889;28;20311;-69
2022/12/31 10:11:42;;;;;;;17.75;16.95;;;16.00;99.90;;;;;;4974517;28;20051;-69
2022/12/31 10:14:26;;;;;;;17.60;16.70;;;16.10;99.90;;;;;;4974547;28;20145;-71
2022/12/31 10:17:13;;;;;;;16.83;16.13;;;16.00;99.90;;;;;;4970805;28;20404;-70
2022/12/31 10:19:59;;;;;;;17.05;16.02;;;16.10;99.90;;;;;;4973543;28;20058;-70
2022/12/31 10:22:43;;;;;;;16.38;15.60;;;16.00;99.90;;;;;;4970798;28;20292;-70
2022/12/31 10:25:42;;;;;;;15.32;14.52;;;16.00;99.90;;;;;;4974025;28;20436;-71
2022/12/31 10:28:48;;;;;;;15.82;15.18;;;16.00;99.90;;;;;;4993496;28;20535;-70
2022/12/31 10:31:36;;;;;;;14.80;14.20;;;15.90;99.90;;;;;;4974671;28;20045;-69
2022/12/31 10:34:13;;;;;;;16.23;15.25;;;15.80;99.90;;;;;;4970680;28;20600;-70
2022/12/31 10:37:15;;;;;;;15.48;14.70;;;15.80;99.90;;;;;;4972304;28;20555;-71
2022/12/31 10:39:57;;;;;;;16.25;15.43;;;15.80;99.90;;;;;;4974396;28;20043;-69
2022/12/31 10:43:10;;;;;;;16.30;15.60;;;15.80;99.90;;;;;;4970077;28;20046;-70
2022/12/31 10:46:04;;;;;;;15.52;14.82;;;15.90;99.90;;;;;;4969021;28;20134;-70
2022/12/31 10:48:57;;;;;;;15.55;14.65;;;15.90;99.90;;;;;;4969686;28;20046;-71
2022/12/31 10:51:49;;;;;;;16.17;15.43;;;15.90;99.90;;;;;;4955644;28;20066;-72
2022/12/31 10:54:36;;;;;;;16.63;15.77;;;15.90;99.90;;;;;;4970600;28;20038;-70
2022/12/31 10:57:31;;;;;;;16.25;15.57;;;15.90;99.90;;;;;;4970844;28;20552;-70
2022/12/31 11:00:06;;;;;;;14.80;14.23;;;15.90;99.90;;;;;;4970864;28;20286;-71
2022/12/31 11:03:03;;;;;;;16.40;15.65;;;16.00;99.90;;;;;;4991207;28;20048;-71
2022/12/31 11:05:41;;;;;;;16.00;15.30;;;15.90;99.90;;;;;;4970451;28;21057;-70
2022/12/31 11:08:27;;;;;;;16.25;15.35;;;15.90;99.90;;;;;;4970693;28;20531;-70
2022/12/31 11:11:12;;;;;;;;;;;15.90;99.90;;;;;;4996765;28;20054;-70
2022/12/31 11:14:00;;;;;;;15.70;15.10;;;15.90;99.90;;;;;;4973941;28;19928;-71
2022/12/31 11:16:34;;;;;;;14.65;13.98;;;15.90;99.90;;;;;;4970988;28;20046;-70
2022/12/31 11:19:15;;;;;;;16.23;15.43;;;15.90;99.90;;;;;;4972389;28;20074;-71
2022/12/31 11:22:28;;;;;;;15.85;15.05;;;15.90;99.90;;;;;;4972848;28;20042;-70
2022/12/31 11:25:10;;;;;;;16.67;15.88;;;16.00;99.90;;;;;;4984360;28;20070;-71
2022/12/31 11:28:01;;;;;;;15.57;14.77;;;16.00;99.90;;;;;;4970813;28;20043;-70
2022/12/31 11:30:54;;;;;;;16.27;15.10;;;16.00;99.90;;;;;;4970037;28;20113;-71
2022/12/31 11:33:33;;;;;;;15.40;14.43;;;16.00;99.90;;;;;;4966191;28;20138;-70
2022/12/31 11:36:29;;;;;;;15.48;14.60;;;16.10;99.90;;;;;;4969293;28;20304;-70
2022/12/31 11:39:29;;;;;;;14.93;14.25;;;16.10;99.90;;;;;;4990252;28;20054;-70
2022/12/31 11:42:23;;;;;;;15.20;14.50;;;16.20;99.90;;;;;;4970470;28;20065;-70
2022/12/31 11:45:11;;;;;;;15.07;14.38;;;16.20;99.90;;;;;;4969921;28;20646;-69
2022/12/31 11:47:43;;;;;;;14.80;14.10;;;16.20;99.90;;;;;;4973075;28;20034;-70
2022/12/31 11:50:51;;;;;;;18.38;17.38;;;16.20;99.90;;;;;;4973570;28;20050;-70
2022/12/31 11:53:32;;;;;;;18.83;17.85;;;16.30;99.90;;;;;;4969201;28;20432;-70
2022/12/31 11:56:21;;;;;;;18.92;17.40;;;16.30;99.90;;;;;;4971010;28;20053;-70
2022/12/31 11:58:54;;;;;;;17.98;16.70;;;16.30;99.90;;;;;;4968113;28;20046;-70
2022/12/31 12:01:39;;;;;;;16.00;14.95;;;16.30;99.90;;;;;;4969260;28;20057;-70
2022/12/31 12:04:09;;;;;;;18.60;17.50;;;16.40;99.90;;;;;;4967375;28;20073;-72
2022/12/31 12:06:36;;;;;;;20.02;18.70;;;16.60;99.90;;;;;;4965775;28;20047;-71
2022/12/31 12:09:06;;;;;;;17.00;16.20;;;16.50;99.90;;;;;;4971537;28;20061;-71
2022/12/31 12:11:39;;;;;;;16.67;15.98;;;16.60;99.90;;;;;;4970561;28;20038;-72
2022/12/31 12:14:31;;;;;;;18.45;17.23;;;16.60;99.90;;;;;;4969459;28;20049;-72
2022/12/31 12:16:59;;;;;;;19.38;17.88;;;16.60;99.90;;;;;;4972714;28;20042;-72
2022/12/31 12:19:33;;;;;;;18.17;17.27;;;16.60;99.90;;;;;;4970205;28;20044;-70
2022/12/31 12:22:09;;;;;;;17.38;16.42;;;16.60;99.90;;;;;;4967981;28;20026;-71
2022/12/31 12:24:36;;;;;;;16.98;16.17;;;16.70;99.90;;;;;;4965491;28;20094;-72
2022/12/31 12:27:03;;;;;;;16.80;16.00;;;16.70;99.90;;;;;;4970434;28;20437;-71
2022/12/31 12:29:34;;;;;;;17.90;16.83;;;16.70;99.90;;;;;;4974039;28;20046;-73
2022/12/31 12:32:05;;;;;;;16.63;15.80;;;16.60;99.90;;;;;;4965738;28;20445;-72
2022/12/31 12:34:38;;;;;;;16.23;15.43;;;16.60;99.90;;;;;;4972261;28;20205;-70
2022/12/31 12:37:31;;;;;;;16.13;15.43;;;16.60;99.90;;;;;;4970185;28;20327;-70
2022/12/31 12:40:19;;;;;;;17.25;16.35;;;16.60;99.90;;;;;;4967388;28;20524;-71
2022/12/31 12:42:51;;;;;;;17.63;16.55;;;16.50;99.90;;;;;;4970286;28;20493;-70
2022/12/31 12:45:24;;;;;;;16.88;15.90;;;16.50;99.90;;;;;;4965839;28;20042;-70
2022/12/31 12:47:59;;;;;;;16.88;16.08;;;16.40;99.90;;;;;;4963978;28;20050;-71
2022/12/31 12:50:41;;;;;;;17.88;16.88;;;16.40;99.90;;;;;;4969716;28;20513;-71
2022/12/31 12:53:17;;;;;;;17.08;16.30;;;16.30;99.90;;;;;;4967445;28;20066;-70
2022/12/31 12:56:18;;;;;;;16.98;16.08;;;16.30;99.90;;;;;;4970104;28;20537;-71
2022/12/31 12:59:18;;;;;;;17.08;16.08;;;16.40;99.90;;;;;;4972823;28;20539;-72
2022/12/31 13:02:02;;;;;;;15.95;15.23;;;16.40;99.90;;;;;;4971240;28;20277;-69
2022/12/31 13:04:45;;;;;;;18.08;16.80;;;16.30;99.90;;;;;;4967812;28;20053;-70
2022/12/31 13:07:23;;;;;;;17.25;16.33;;;16.30;99.90;;;;;;4955820;28;20076;-71
2022/12/31 13:10:27;;;;;;;17.98;16.98;;;16.30;99.90;;;;;;4994905;28;20047;-71
2022/12/31 13:13:09;;;;;;;17.27;16.40;;;16.30;99.90;;;;;;4972197;28;20047;-70
2022/12/31 13:15:56;;;;;;;16.55;15.48;;;16.30;99.90;;;;;;4970664;28;20109;-72
2022/12/31 13:18:40;;;;;;;16.80;15.95;;;16.30;99.90;;;;;;4976789;28;20046;-71
2022/12/31 13:21:25;;;;;;;17.30;16.10;;;16.30;99.90;;;;;;4981761;28;20049;-70
2022/12/31 13:24:25;;;;;;;17.38;16.48;;;16.30;99.90;;;;;;4996912;28;20093;-71
2022/12/31 13:27:03;;;;;;;16.58;15.57;;;16.40;99.90;;;;;;4990774;28;20667;-71
2022/12/31 13:29:33;;;;;;;18.48;17.30;;;16.40;99.90;;;;;;4995342;28;20266;-71
2022/12/31 13:32:03;;;;;;;17.27;16.17;;;16.30;99.90;;;;;;4991293;28;20061;-70
2022/12/31 13:34:39;;;;;;;18.02;16.85;;;16.30;99.90;;;;;;4995846;28;20064;-70
2022/12/31 13:37:34;;;;;;;17.02;16.13;;;16.20;99.90;;;;;;4992388;28;20034;-71
2022/12/31 13:40:25;;;;;;;17.00;16.20;;;16.20;99.90;;;;;;4983204;28;20519;-72